KBE weather

Bell Island Hot Springs Seaplane Base
Bell Island, Alaska, United States

Public forecast

Using degrees Fahrenheit for public forecast. Weather courtesy of forecast.io.

METAR (pilot weather report)

Closest report is Ketchikan International Airport, 34.8 nm (64.4 km) S. Retrieved 2019/09/19 04:53 UTC (18 minutes ago):

PAKT 190453Z 19003KT 10SM -RA OVC050 13/12 A3003

TAF (pilot weather forecast)

Forecast is more than 12 hours old.

Closest forecast is Ketchikan International Airport, 34.8 nm (64.4 km) S. Retrieved 2019/09/18 00:48 UTC (1 day ago):

TAF PAKT 182345Z 1900/1924 31006KT P6SM FEW060 BKN070 FM190300 14006KT P6SM -RA SCT025 BKN040 OVC050 FM190700 14010KT 4SM -RA BR SCT008 BKN012 OVC020 FM192100 13007KT P6SM VCSH SCT015 OVC030 AMD LTD TO CLD VIS AND WIND 1906/1915